METAR Data
IDs: Format: Raw Decoded Include TAF

Data at: 0237 UTC 29 May 2022

ENML 290220Z AUTO 26013KT 9999NDV -RA VV/// 05/04 Q1011